sim
Sign-in with your pilot id or email,
or register
Callsign
Passwort

Schedule Details

Flight Number: OEO3259
Departure: Oulu Airport (EFOU) at 10:05
Arrival: Munich Airport (EDDM) at 13:20

Weather Information
Getting current METAR information for EFOU 192220Z AUTO VRB02KT CAVOK 02/00 Q1015
Getting current METAR information for EDDM 192220Z VRB01KT CAVOK 09/08 Q1017 NOSIG

Schedule Frequency

Route Map